Time;durP1;ratioP1;P1;durP2;ratioP2;P2;SDS_P1;SDS_P2;PMS_P1;PMS_P2;Temp;Humidity;BMP_temperature;BMP_pressure;BME280_temperature;BME280_humidity;BME280_pressure;Samples;Min_cycle;Max_cycle;Signal;HPM_P1;HPM_P2
2021/07/27 00:01:50;;;;;;;;;;;640.50;2432.00;;;;;;5055445;28;19971;-74
2021/07/27 00:04:16;;;;;;;;;;;640.40;2432.00;;;;;;5073243;28;20362;-82
2021/07/27 00:06:41;;;;;;;;;;;640.30;2432.00;;;;;;5073417;28;20007;-77
2021/07/27 00:09:07;;;;;;;;;;;640.30;2432.00;;;;;;5073232;28;20278;-74
2021/07/27 00:11:33;;;;;;;;;;;640.40;2432.00;;;;;;5073142;28;20286;-73
2021/07/27 00:13:59;;;;;;;;;;;640.40;2432.00;;;;;;5073398;28;19905;-74
2021/07/27 00:16:24;;;;;;;;;;;640.40;2432.00;;;;;;5073030;28;19908;-73
2021/07/27 00:18:50;;;;;;;;;;;640.30;2432.00;;;;;;5073207;28;19958;-76
2021/07/27 00:21:15;;;;;;;;;;;640.30;2432.00;;;;;;5073066;28;19908;-74
2021/07/27 00:23:41;;;;;;;;;;;640.20;2432.00;;;;;;5073144;28;20318;-73
2021/07/27 00:26:10;;;;;;;;;;;640.10;2432.00;;;;;;5073047;28;19904;-74
2021/07/27 00:28:36;;;;;;;;;;;640.00;2432.00;;;;;;5072979;28;19911;-73
2021/07/27 00:31:01;;;;;;;;;;;640.00;2432.00;;;;;;5072985;28;19912;-73
2021/07/27 00:33:27;;;;;;;;;;;640.10;2432.00;;;;;;5072864;28;19991;-73
2021/07/27 00:35:52;;;;;;;;;;;640.10;2432.00;;;;;;5072907;28;19905;-73
2021/07/27 00:38:20;;;;;;;;;;;640.00;2432.00;;;;;;5073049;28;20357;-74
2021/07/27 00:40:46;;;;;;;;;;;615.30;2432.00;;;;;;5072750;28;19916;-73
2021/07/27 00:43:12;;;;;;;;;;;615.30;2432.00;;;;;;5073169;28;19904;-75
2021/07/27 00:45:38;;;;;;;;;;;615.20;2432.00;;;;;;5073286;28;19904;-74
2021/07/27 00:48:04;;;;;;;;;;;615.10;2432.00;;;;;;5073026;28;20275;-74
2021/07/27 00:50:29;;;;;;;;;;;615.20;2432.00;;;;;;5072799;28;20332;-74
2021/07/27 00:52:59;;;;;;;;;;;615.30;2432.00;;;;;;5073121;28;19912;-74
2021/07/27 00:55:25;;;;;;;;;;;615.20;2432.00;;;;;;5072955;28;19912;-74
2021/07/27 00:57:51;;;;;;;;;;;615.30;2432.00;;;;;;5072795;28;19905;-73
2021/07/27 01:00:17;;;;;;;;;;;615.30;2432.00;;;;;;5072820;28;19911;-73
2021/07/27 01:02:43;;;;;;;;;;;615.20;2432.00;;;;;;5072610;28;19909;-74
2021/07/27 01:05:10;;;;;;;;;;;615.10;2432.00;;;;;;5076197;28;19904;-74
2021/07/27 01:07:36;;;;;;;;;;;615.10;2432.00;;;;;;5076651;28;19904;-73
2021/07/27 01:10:02;;;;;;;;;;;615.10;2432.00;;;;;;5076496;28;19909;-74
2021/07/27 01:12:27;;;;;;;;;;;615.20;2432.00;;;;;;5076652;28;19911;-73
2021/07/27 01:14:53;;;;;;;;;;;615.20;2432.00;;;;;;5076546;28;19913;-74
2021/07/27 01:17:19;;;;;;;;;;;615.20;2432.00;;;;;;5076578;28;19904;-74
2021/07/27 01:19:54;;;;;;;;;;;615.10;2432.00;;;;;;5076253;28;19904;-83
2021/07/27 01:44:02;;;;;;;;;;;615.20;2432.00;;;;;;5075963;28;19904;-75
2021/07/27 01:46:28;;;;;;;;;;;615.20;2432.00;;;;;;5075965;28;19912;-74
2021/07/27 01:48:54;;;;;;;;;;;615.10;2432.00;;;;;;5076264;28;19959;-74
2021/07/27 01:51:19;;;;;;;;;;;615.00;2432.00;;;;;;5075724;28;19947;-74
2021/07/27 01:53:49;;;;;;;;;;;614.90;2432.00;;;;;;5075673;28;19926;-82
2021/07/27 01:56:16;;;;;;;;;;;614.90;2432.00;;;;;;5075905;28;19904;-75
2021/07/27 01:58:42;;;;;;;;;;;614.90;2432.00;;;;;;5075665;28;20343;-74
2021/07/27 02:01:07;;;;;;;;;;;614.90;2432.00;;;;;;5075466;28;19911;-74
2021/07/27 02:03:33;;;;;;;;;;;614.80;2432.00;;;;;;5075550;28;19928;-74
2021/07/27 02:05:58;;;;;;;;;;;614.80;2432.00;;;;;;5075591;28;20436;-74
2021/07/27 02:08:24;;;;;;;;;;;614.80;2432.00;;;;;;5075523;28;19995;-74
2021/07/27 02:10:57;;;;;;;;;;;614.70;2432.00;;;;;;5075248;28;19994;-75
2021/07/27 02:13:31;;;;;;;;;;;614.60;2432.00;;;;;;5075655;28;19904;-74
2021/07/27 02:15:57;;;;;;;;;;;614.60;2432.00;;;;;;5075190;28;19912;-73
2021/07/27 02:18:23;;;;;;;;;;;614.60;2432.00;;;;;;5075382;28;19950;-74
2021/07/27 02:20:48;;;;;;;;;;;614.60;2432.00;;;;;;5075293;28;19908;-74
2021/07/27 02:23:14;;;;;;;;;;;614.50;2432.00;;;;;;5075447;28;19904;-73
2021/07/27 02:25:40;;;;;;;;;;;614.60;2432.00;;;;;;5075099;28;19908;-73
2021/07/27 02:28:06;;;;;;;;;;;614.60;2432.00;;;;;;5075102;28;19948;-74
2021/07/27 02:30:39;;;;;;;;;;;614.50;2432.00;;;;;;5074818;28;19943;-74
2021/07/27 02:33:05;;;;;;;;;;;614.50;2432.00;;;;;;5075036;28;19916;-73
2021/07/27 02:35:33;;;;;;;;;;;614.50;2432.00;;;;;;5074836;28;19905;-73
2021/07/27 02:38:01;;;;;;;;;;;614.50;2432.00;;;;;;5074994;28;20335;-81
2021/07/27 02:40:27;;;;;;;;;;;614.40;2432.00;;;;;;5074761;28;20432;-77
2021/07/27 02:42:52;;;;;;;;;;;614.40;2432.00;;;;;;5075211;28;19908;-77
2021/07/27 02:45:21;;;;;;;;;;;614.40;2432.00;;;;;;5074904;28;19911;-73
2021/07/27 02:47:47;;;;;;;;;;;589.70;2432.00;;;;;;5075141;28;19924;-73
2021/07/27 02:50:12;;;;;;;;;;;589.70;2432.00;;;;;;5074755;28;20047;-73
2021/07/27 02:52:41;;;;;;;;;;;589.70;2432.00;;;;;;5074618;28;19904;-74
2021/07/27 02:55:07;;;;;;;;;;;589.70;2432.00;;;;;;5066950;28;20278;-78
2021/07/27 02:57:32;;;;;;;;;;;589.70;2432.00;;;;;;5074749;28;19908;-81
2021/07/27 02:59:59;;;;;;;;;;;614.40;2432.00;;;;;;5056718;28;19904;-84
2021/07/27 03:02:31;;;;;;;;;;;614.40;2432.00;;;;;;5074326;28;20329;-82
2021/07/27 03:04:56;;;;;;;;;;;614.40;2432.00;;;;;;5074506;28;19954;-79
2021/07/27 03:07:32;;;;;;;;;;;614.40;2432.00;;;;;;5074234;28;19909;-78
2021/07/27 03:12:41;;;;;;;;;;;614.40;2432.00;;;;;;5074197;28;20270;-73
2021/07/27 03:15:09;;;;;;;;;;;614.40;2432.00;;;;;;5074364;28;19920;-83
2021/07/27 03:17:34;;;;;;;;;;;614.40;2432.00;;;;;;5073853;28;20320;-77
2021/07/27 03:20:02;;;;;;;;;;;589.70;2432.00;;;;;;5073990;28;19951;-78
2021/07/27 03:22:28;;;;;;;;;;;589.70;2432.00;;;;;;5074207;28;20015;-77
2021/07/27 03:24:53;;;;;;;;;;;589.70;2432.00;;;;;;5073749;28;20370;-74
2021/07/27 03:27:19;;;;;;;;;;;589.60;2432.00;;;;;;5073303;28;19948;-74
2021/07/27 03:29:44;;;;;;;;;;;589.50;2432.00;;;;;;5073474;28;19909;-74
2021/07/27 03:32:10;;;;;;;;;;;589.50;2432.00;;;;;;5074006;28;19905;-78
2021/07/27 03:34:36;;;;;;;;;;;589.60;2432.00;;;;;;5055760;28;19904;-77
2021/07/27 03:37:01;;;;;;;;;;;589.60;2432.00;;;;;;5073747;28;20306;-77
2021/07/27 03:39:27;;;;;;;;;;;589.60;2432.00;;;;;;5073628;28;19974;-78
2021/07/27 03:41:52;;;;;;;;;;;589.60;2432.00;;;;;;5073547;28;19909;-77
2021/07/27 03:44:19;;;;;;;;;;;589.70;2432.00;;;;;;5073893;28;19904;-77
2021/07/27 03:46:47;;;;;;;;;;;589.60;2432.00;;;;;;5073531;28;19904;-76
2021/07/27 03:49:13;;;;;;;;;;;589.60;2432.00;;;;;;5073054;28;19966;-73
2021/07/27 03:51:39;;;;;;;;;;;589.60;2432.00;;;;;;5073481;28;20366;-76
2021/07/27 03:54:04;;;;;;;;;;;589.60;2432.00;;;;;;5073366;28;19927;-74
2021/07/27 03:56:30;;;;;;;;;;;589.60;2432.00;;;;;;5073480;28;20354;-78
2021/07/27 03:58:56;;;;;;;;;;;589.60;2432.00;;;;;;5073238;28;19950;-77
2021/07/27 04:01:22;;;;;;;;;;;589.60;2432.00;;;;;;5073377;28;19912;-78
2021/07/27 04:03:47;;;;;;;;;;;589.60;2432.00;;;;;;5073121;28;20007;-73
2021/07/27 04:06:13;;;;;;;;;;;589.60;2432.00;;;;;;5073497;28;19904;-73
2021/07/27 04:08:38;;;;;;;;;;;589.60;2432.00;;;;;;5073110;28;19905;-72
2021/07/27 04:11:04;;;;;;;;;;;589.70;2432.00;;;;;;5073575;28;19991;-83
2021/07/27 04:13:31;;;;;;;;;;;614.40;2432.00;;;;;;5056962;28;20294;-82
2021/07/27 04:15:58;;;;;;;;;;;614.40;2432.00;;;;;;5073285;28;19904;-81
2021/07/27 04:18:23;;;;;;;;;;;614.40;2432.00;;;;;;5073197;28;20004;-77
2021/07/27 04:20:49;;;;;;;;;;;614.40;2432.00;;;;;;5073128;28;19944;-80
2021/07/27 04:23:15;;;;;;;;;;;614.50;2432.00;;;;;;5073019;28;19905;-78
2021/07/27 04:25:40;;;;;;;;;;;614.60;2432.00;;;;;;5072996;28;19912;-78
2021/07/27 04:28:06;;;;;;;;;;;614.70;2432.00;;;;;;5073150;28;20367;-80
2021/07/27 04:30:32;;;;;;;;;;;614.70;2432.00;;;;;;5072651;28;19913;-76
2021/07/27 04:32:58;;;;;;;;;;;614.80;2432.00;;;;;;5072831;28;19904;-77
2021/07/27 04:35:23;;;;;;;;;;;614.80;2432.00;;;;;;5072994;28;19911;-77
2021/07/27 04:37:50;;;;;;;;;;;614.70;2432.00;;;;;;5072676;28;19908;-77
2021/07/27 04:40:15;;;;;;;;;;;614.70;2432.00;;;;;;5072744;28;19955;-75
2021/07/27 04:42:42;;;;;;;;;;;614.70;2432.00;;;;;;5054651;28;19904;-73
2021/07/27 04:45:07;;;;;;;;;;;614.70;2432.00;;;;;;5072879;28;20454;-74
2021/07/27 04:47:33;;;;;;;;;;;614.80;2432.00;;;;;;5072696;28;19940;-78
2021/07/27 04:49:59;;;;;;;;;;;614.80;2432.00;;;;;;5072539;28;19909;-84
2021/07/27 04:52:24;;;;;;;;;;;614.80;2432.00;;;;;;5072479;28;19950;-79
2021/07/27 04:54:55;;;;;;;;;;;614.90;2432.00;;;;;;5072748;28;19912;-77
2021/07/27 04:57:20;;;;;;;;;;;615.00;2432.00;;;;;;5072595;28;19908;-73
2021/07/27 04:59:46;;;;;;;;;;;615.00;2432.00;;;;;;5072601;28;19905;-73
2021/07/27 05:02:11;;;;;;;;;;;615.20;2432.00;;;;;;5072536;28;19912;-74
2021/07/27 05:04:37;;;;;;;;;;;615.20;2432.00;;;;;;5072856;28;19904;-78
2021/07/27 05:07:03;;;;;;;;;;;615.20;2432.00;;;;;;5071126;28;19908;-77
2021/07/27 05:09:29;;;;;;;;;;;615.30;2432.00;;;;;;5072315;28;19954;-76
2021/07/27 05:11:57;;;;;;;;;;;615.30;2432.00;;;;;;5072344;28;19931;-73
2021/07/27 05:14:23;;;;;;;;;;;640.00;2432.00;;;;;;5072246;28;19904;-73
2021/07/27 05:16:49;;;;;;;;;;;640.10;2432.00;;;;;;5072513;28;19909;-74
2021/07/27 05:19:14;;;;;;;;;;;640.20;2432.00;;;;;;5072171;28;20405;-74
2021/07/27 05:21:40;;;;;;;;;;;640.30;2432.00;;;;;;5072385;28;19908;-77
2021/07/27 05:24:06;;;;;;;;;;;640.40;2432.00;;;;;;5072288;28;19908;-77
2021/07/27 05:26:31;;;;;;;;;;;640.50;2432.00;;;;;;5072323;28;19995;-73
2021/07/27 05:28:57;;;;;;;;;;;640.60;2432.00;;;;;;5072161;28;19904;-73
2021/07/27 05:31:23;;;;;;;;;;;640.60;2432.00;;;;;;5071787;28;20397;-73
2021/07/27 05:33:49;;;;;;;;;;;640.60;2432.00;;;;;;5070304;28;19995;-76
2021/07/27 05:36:14;;;;;;;;;;;640.70;2432.00;;;;;;5071827;28;20251;-76
2021/07/27 05:38:40;;;;;;;;;;;640.70;2432.00;;;;;;5071921;28;19912;-82
2021/07/27 05:41:06;;;;;;;;;;;640.60;2432.00;;;;;;5071652;28;19939;-79
2021/07/27 05:43:31;;;;;;;;;;;640.70;2432.00;;;;;;5071175;28;19904;-76
2021/07/27 05:45:57;;;;;;;;;;;640.70;2432.00;;;;;;5071131;28;19911;-76
2021/07/27 05:48:23;;;;;;;;;;;640.80;2432.00;;;;;;5068692;28;19998;-78
2021/07/27 05:50:50;;;;;;;;;;;665.60;2432.00;;;;;;5056959;28;19987;-73
2021/07/27 05:53:16;;;;;;;;;;;665.60;2432.00;;;;;;5064669;28;19905;-76
2021/07/27 05:55:41;;;;;;;;;;;665.60;2432.00;;;;;;5061510;28;20398;-73
2021/07/27 05:58:07;;;;;;;;;;;665.60;2432.00;;;;;;5061503;28;19912;-74
2021/07/27 06:00:35;;;;;;;;;;;665.60;2432.00;;;;;;5061821;28;19904;-73
2021/07/27 06:03:04;;;;;;;;;;;665.70;2432.00;;;;;;5069859;28;19904;-77
2021/07/27 06:05:30;;;;;;;;;;;665.70;2432.00;;;;;;5065087;28;19909;-78
2021/07/27 06:07:55;;;;;;;;;;;665.70;2432.00;;;;;;5065016;28;20346;-76
2021/07/27 06:10:21;;;;;;;;;;;665.80;2432.00;;;;;;5075126;28;19912;-74
2021/07/27 06:12:47;;;;;;;;;;;665.90;2432.00;;;;;;5075029;28;19908;-73
2021/07/27 06:15:12;;;;;;;;;;;665.90;2432.00;;;;;;5075277;28;20396;-73
2021/07/27 06:17:38;;;;;;;;;;;666.00;2432.00;;;;;;5074860;28;20313;-73
2021/07/27 06:20:04;;;;;;;;;;;666.10;2432.00;;;;;;5074987;28;19905;-73
2021/07/27 06:22:29;;;;;;;;;;;666.20;2432.00;;;;;;5075030;28;19909;-72
2021/07/27 06:24:55;;;;;;;;;;;666.40;2432.00;;;;;;5058664;28;19909;-73
2021/07/27 06:27:21;;;;;;;;;;;666.50;2432.00;;;;;;5058063;28;19909;-73
2021/07/27 06:29:47;;;;;;;;;;;691.20;2432.00;;;;;;5064418;28;19916;-73
2021/07/27 06:32:12;;;;;;;;;;;691.20;2432.00;;;;;;5059510;28;19908;-73
2021/07/27 06:34:38;;;;;;;;;;;691.30;2432.00;;;;;;5065579;28;19909;-72
2021/07/27 06:37:03;;;;;;;;;;;691.30;2432.00;;;;;;5055019;28;19908;-73
2021/07/27 06:39:29;;;;;;;;;;;691.40;2432.00;;;;;;5062193;28;20383;-73
2021/07/27 06:41:55;;;;;;;;;;;691.50;2432.00;;;;;;5074603;28;20330;-73
2021/07/27 06:44:21;;;;;;;;;;;691.60;2432.00;;;;;;5074483;28;19911;-72
2021/07/27 06:46:47;;;;;;;;;;;691.70;2432.00;;;;;;5073990;28;19904;-73
2021/07/27 06:49:13;;;;;;;;;;;691.80;2432.00;;;;;;5074114;28;19954;-72
2021/07/27 06:51:38;;;;;;;;;;;691.80;2432.00;;;;;;5074321;28;19908;-72
2021/07/27 06:54:06;;;;;;;;;;;691.90;2432.00;;;;;;5074320;28;20401;-72
2021/07/27 06:56:31;;;;;;;;;;;692.00;2432.00;;;;;;5074613;28;19908;-76
2021/07/27 06:58:57;;;;;;;;;;;692.10;2432.00;;;;;;5074238;28;20351;-75
2021/07/27 07:01:22;;;;;;;;;;;716.80;2432.00;;;;;;5074099;28;19916;-77
2021/07/27 07:03:48;;;;;;;;;;;716.80;2432.00;;;;;;5074617;28;19995;-77
2021/07/27 07:06:15;;;;;;;;;;;717.00;2432.00;;;;;;5074393;28;19904;-75
2021/07/27 07:08:41;;;;;;;;;;;717.10;2432.00;;;;;;5074194;28;19904;-76
2021/07/27 07:11:07;;;;;;;;;;;717.10;2432.00;;;;;;5074084;28;19931;-73
2021/07/27 07:13:33;;;;;;;;;;;717.40;2432.00;;;;;;5074221;28;19912;-73
2021/07/27 07:15:59;;;;;;;;;;;717.50;2432.00;;;;;;5074008;28;19905;-72
2021/07/27 07:18:25;;;;;;;;;;;717.70;2432.00;;;;;;5074433;28;20041;-73
2021/07/27 07:20:51;;;;;;;;;;;742.50;2432.00;;;;;;5073989;28;20409;-73
2021/07/27 07:23:18;;;;;;;;;;;742.70;2432.00;;;;;;5074189;28;19932;-72
2021/07/27 07:25:43;;;;;;;;;;;742.90;2432.00;;;;;;5074106;28;20301;-72
2021/07/27 07:28:10;;;;;;;;;;;743.10;2432.00;;;;;;5074234;28;19908;-73
2021/07/27 07:30:35;;;;;;;;;;;743.30;2432.00;;;;;;5074005;28;19912;-74
2021/07/27 07:33:01;;;;;;;;;;;768.10;2432.00;;;;;;5073682;28;19905;-73
2021/07/27 07:35:27;;;;;;;;;;;768.30;2432.00;;;;;;5073864;28;19905;-73
2021/07/27 07:37:52;;;;;;;;;;;768.50;2432.00;;;;;;5073528;28;20317;-72
2021/07/27 07:40:18;;;;;;;;;;;768.60;2432.00;;;;;;5073452;28;19966;-73
2021/07/27 07:42:43;;;;;;;;;;;768.90;2432.00;;;;;;5073426;28;19967;-76
2021/07/27 07:45:09;;;;;;;;;;;793.60;2432.00;;;;;;5073555;28;19905;-73
2021/07/27 07:47:35;;;;;;;;;;;793.70;2432.00;;;;;;5073690;28;19918;-74
2021/07/27 07:50:00;;;;;;;;;;;794.00;2432.00;;;;;;5073246;28;19974;-74
2021/07/27 07:52:26;;;;;;;;;;;794.00;2432.00;;;;;;5073421;28;19908;-75
2021/07/27 07:54:52;;;;;;;;;;;794.20;2432.00;;;;;;5073206;28;19912;-74
2021/07/27 07:57:17;;;;;;;;;;;794.50;2432.00;;;;;;5073334;28;19904;-78
2021/07/27 07:59:44;;;;;;;;;;;819.30;2432.00;;;;;;5073222;28;19954;-77
2021/07/27 08:02:09;;;;;;;;;;;819.50;2406.40;;;;;;5073081;28;19991;-73
2021/07/27 08:04:35;;;;;;;;;;;819.70;2432.00;;;;;;5073210;28;19950;-74
2021/07/27 08:07:01;;;;;;;;;;;819.90;2380.80;;;;;;5073228;28;19904;-74
2021/07/27 08:09:26;;;;;;;;;;;844.80;2355.20;;;;;;5073364;28;19905;-74
2021/07/27 08:11:52;;;;;;;;;;;845.00;2355.20;;;;;;5072869;28;19915;-74
2021/07/27 08:14:19;;;;;;;;;;;845.00;2355.20;;;;;;5072609;28;19908;-73
2021/07/27 08:16:45;;;;;;;;;;;845.20;2329.60;;;;;;5055155;28;20372;-72
2021/07/27 08:19:10;;;;;;;;;;;845.30;2252.80;;;;;;5072753;28;19943;-75
2021/07/27 08:21:36;;;;;;;;;;;845.50;2227.20;;;;;;5073199;28;19912;-76
2021/07/27 08:24:01;;;;;;;;;;;870.40;2252.80;;;;;;5072944;28;19904;-75
2021/07/27 08:26:27;;;;;;;;;;;870.70;2227.20;;;;;;5072912;28;19908;-74
2021/07/27 08:28:53;;;;;;;;;;;870.90;2201.60;;;;;;5072883;28;19904;-72
2021/07/27 08:31:18;;;;;;;;;;;871.10;2150.40;;;;;;5072716;28;19916;-74
2021/07/27 08:33:44;;;;;;;;;;;896.30;2124.80;;;;;;5072794;28;20320;-73
2021/07/27 08:36:10;;;;;;;;;;;896.80;2073.60;;;;;;5072607;28;19950;-74
2021/07/27 08:38:35;;;;;;;;;;;922.00;2048.00;;;;;;5073021;28;19908;-74
2021/07/27 08:41:02;;;;;;;;;;;922.50;1945.60;;;;;;5072655;28;19959;-74
2021/07/27 08:43:28;;;;;;;;;;;947.90;1920.00;;;;;;5072601;28;19950;-74
2021/07/27 08:45:54;;;;;;;;;;;972.90;1920.00;;;;;;5072775;28;19952;-73
2021/07/27 08:48:23;;;;;;;;;;;973.10;1894.40;;;;;;5072522;28;19904;-71
2021/07/27 08:50:49;;;;;;;;;;;973.50;1817.60;;;;;;5072555;28;19909;-71
2021/07/27 08:53:14;;;;;;;;;;;973.50;1792.00;;;;;;5072513;28;19915;-74
2021/07/27 08:55:40;;;;;;;;;;;973.60;1817.60;;;;;;5072697;28;19904;-75
2021/07/27 08:58:06;;;;;;;;;;;973.50;1792.00;;;;;;5072273;28;20038;-72
2021/07/27 09:00:32;;;;;;;;;;;972.90;1817.60;;;;;;5072645;28;19905;-72
2021/07/27 09:03:10;;;;;;;;;;;947.50;1843.20;;;;;;5072427;28;19908;-72
2021/07/27 09:05:36;;;;;;;;;;;922.40;1894.40;;;;;;5072648;28;19908;-72
2021/07/27 09:08:09;;;;;;;;;;;922.10;1894.40;;;;;;5072604;28;20330;-72
2021/07/27 09:10:39;;;;;;;;;;;921.80;1894.40;;;;;;5072491;28;19909;-71
2021/07/27 09:13:06;;;;;;;;;;;896.90;1920.00;;;;;;5072654;28;20363;-72
2021/07/27 09:15:33;;;;;;;;;;;896.70;1920.00;;;;;;5072366;28;20366;-75
2021/07/27 09:18:01;;;;;;;;;;;896.50;1920.00;;;;;;5072319;28;20346;-73
2021/07/27 09:20:40;;;;;;;;;;;896.10;1971.20;;;;;;5072389;28;19912;-73
2021/07/27 09:23:07;;;;;;;;;;;896.00;1920.00;;;;;;5059997;28;19904;-74
2021/07/27 09:25:33;;;;;;;;;;;871.20;1971.20;;;;;;5074480;28;19915;-75
2021/07/27 09:28:00;;;;;;;;;;;871.10;1971.20;;;;;;5076054;28;19908;-75
2021/07/27 09:30:25;;;;;;;;;;;871.00;1971.20;;;;;;5076028;28;19951;-74
2021/07/27 09:32:51;;;;;;;;;;;870.80;1971.20;;;;;;5075887;28;20290;-73
2021/07/27 09:35:20;;;;;;;;;;;870.60;1996.80;;;;;;5076018;28;19911;-73
2021/07/27 09:37:48;;;;;;;;;;;870.60;1971.20;;;;;;5075891;28;19994;-73
2021/07/27 09:40:14;;;;;;;;;;;870.50;1971.20;;;;;;5075696;28;20298;-74
2021/07/27 09:42:40;;;;;;;;;;;870.50;1945.60;;;;;;5075662;28;19911;-73
2021/07/27 09:45:06;;;;;;;;;;;845.70;1920.00;;;;;;5075904;28;19904;-77
2021/07/27 09:47:32;;;;;;;;;;;845.70;1996.80;;;;;;5075760;28;19908;-76
2021/07/27 09:49:58;;;;;;;;;;;845.60;1971.20;;;;;;5075728;28;19912;-76
2021/07/27 09:52:25;;;;;;;;;;;845.40;1996.80;;;;;;5075774;28;20301;-75
2021/07/27 09:54:51;;;;;;;;;;;845.20;2022.40;;;;;;5075628;28;19919;-78
2021/07/27 09:57:17;;;;;;;;;;;845.20;2022.40;;;;;;5075671;28;19904;-78
2021/07/27 09:59:48;;;;;;;;;;;845.10;2022.40;;;;;;5057534;28;20286;-77
2021/07/27 10:02:15;;;;;;;;;;;845.10;2022.40;;;;;;5075742;28;19908;-77
2021/07/27 10:04:46;;;;;;;;;;;845.00;1996.80;;;;;;5075544;28;20351;-76
2021/07/27 10:07:11;;;;;;;;;;;845.20;2022.40;;;;;;5075440;28;19919;-74
2021/07/27 10:09:37;;;;;;;;;;;844.90;2022.40;;;;;;5075625;28;19904;-73
2021/07/27 10:12:06;;;;;;;;;;;845.10;1996.80;;;;;;5075238;28;19908;-73
2021/07/27 10:14:42;;;;;;;;;;;845.10;2022.40;;;;;;5075284;28;19995;-73
2021/07/27 10:17:08;;;;;;;;;;;845.20;2022.40;;;;;;5075058;28;20355;-73
2021/07/27 10:19:40;;;;;;;;;;;845.00;2048.00;;;;;;5075589;28;19904;-73
2021/07/27 10:22:07;;;;;;;;;;;845.00;1996.80;;;;;;5074705;28;20389;-74
2021/07/27 10:24:41;;;;;;;;;;;845.20;1996.80;;;;;;5065566;28;19917;-73
2021/07/27 10:27:08;;;;;;;;;;;845.00;2048.00;;;;;;5067963;28;19935;-73
2021/07/27 10:29:33;;;;;;;;;;;845.00;2022.40;;;;;;5064764;28;19916;-73
2021/07/27 10:32:10;;;;;;;;;;;845.10;1971.20;;;;;;5065658;28;19908;-78
2021/07/27 10:34:35;;;;;;;;;;;845.00;2022.40;;;;;;5064831;28;19905;-73
2021/07/27 10:37:21;;;;;;;;;;;845.20;1971.20;;;;;;5057577;28;19912;-73
2021/07/27 10:39:55;;;;;;;;;;;844.80;2048.00;;;;;;5038916;28;19917;-77
2021/07/27 10:42:21;;;;;;;;;;;845.00;1996.80;;;;;;5043112;28;19950;-73
2021/07/27 10:44:48;;;;;;;;;;;845.10;1996.80;;;;;;5044201;28;19904;-78
2021/07/27 10:47:23;;;;;;;;;;;845.20;1996.80;;;;;;5039451;28;19913;-74
2021/07/27 10:49:58;;;;;;;;;;;845.10;2022.40;;;;;;5041905;28;19912;-73
2021/07/27 10:52:25;;;;;;;;;;;844.90;1996.80;;;;;;5039924;28;20008;-72
2021/07/27 10:54:51;;;;;;;;;;;845.00;1945.60;;;;;;5040563;28;19923;-73
2021/07/27 10:57:22;;;;;;;;;;;844.90;2022.40;;;;;;5037504;28;20352;-78
2021/07/27 10:59:48;;;;;;;;;;;844.80;2022.40;;;;;;5038738;28;19905;-77
2021/07/27 11:02:13;;;;;;;;;;;819.90;2022.40;;;;;;5052726;28;19904;-72
2021/07/27 11:04:39;;;;;;;;;;;820.10;1920.00;;;;;;5037852;28;19905;-72
2021/07/27 11:07:15;;;;;;;;;;;820.10;2022.40;;;;;;5042095;28;19912;-73
2021/07/27 11:09:46;;;;;;;;;;;819.90;1996.80;;;;;;5050989;28;20379;-72
2021/07/27 11:12:12;;;;;;;;;;;820.10;1920.00;;;;;;5052901;28;19908;-73
2021/07/27 11:14:37;;;;;;;;;;;819.80;2022.40;;;;;;5052746;28;20367;-71
2021/07/27 11:17:03;;;;;;;;;;;819.60;2022.40;;;;;;5052639;28;19912;-71
2021/07/27 11:19:31;;;;;;;;;;;819.60;2048.00;;;;;;5051869;28;19905;-76
2021/07/27 11:21:57;;;;;;;;;;;819.50;2048.00;;;;;;5051399;28;19948;-73
2021/07/27 11:24:23;;;;;;;;;;;819.30;2048.00;;;;;;5052667;28;20342;-72
2021/07/27 11:26:53;;;;;;;;;;;819.60;2022.40;;;;;;5052663;28;19911;-77
2021/07/27 11:29:19;;;;;;;;;;;819.70;1971.20;;;;;;5052583;28;19904;-74
2021/07/27 11:31:48;;;;;;;;;;;819.70;1971.20;;;;;;5052459;28;19913;-74
2021/07/27 11:34:24;;;;;;;;;;;819.60;2022.40;;;;;;5051677;28;20317;-74
2021/07/27 11:36:51;;;;;;;;;;;819.60;2022.40;;;;;;5051205;28;19979;-74
2021/07/27 11:39:16;;;;;;;;;;;819.30;2048.00;;;;;;5056738;28;19916;-71
2021/07/27 11:41:42;;;;;;;;;;;819.60;2022.40;;;;;;5072684;28;19912;-72
2021/07/27 11:44:07;;;;;;;;;;;819.40;2022.40;;;;;;5072448;28;19919;-76
2021/07/27 11:46:38;;;;;;;;;;;819.30;2048.00;;;;;;5072208;28;19955;-76
2021/07/27 11:49:07;;;;;;;;;;;819.40;2022.40;;;;;;5071765;28;19919;-75
2021/07/27 11:51:33;;;;;;;;;;;819.50;2022.40;;;;;;5072163;28;20402;-79
2021/07/27 11:53:59;;;;;;;;;;;819.30;2048.00;;;;;;5072327;28;19909;-77
2021/07/27 11:56:25;;;;;;;;;;;819.40;2022.40;;;;;;5072114;28;19905;-73
2021/07/27 11:59:00;;;;;;;;;;;819.30;2048.00;;;;;;5072259;28;19999;-75
2021/07/27 12:01:42;;;;;;;;;;;819.30;1945.60;;;;;;5072513;28;19915;-77
2021/07/27 12:04:08;;;;;;;;;;;819.20;2048.00;;;;;;5072837;28;20316;-77
2021/07/27 12:06:54;;;;;;;;;;;819.40;1996.80;;;;;;5073277;28;19904;-77
2021/07/27 12:09:21;;;;;;;;;;;819.40;1971.20;;;;;;5138948;22;19968;-73
2021/07/27 12:11:46;;;;;;;;;;;819.60;1971.20;;;;;;5092127;28;19999;-73
2021/07/27 12:14:12;;;;;;;;;;;819.60;2022.40;;;;;;5090184;28;19943;-74
2021/07/27 12:16:38;;;;;;;;;;;819.80;1971.20;;;;;;5090646;28;19904;-73
2021/07/27 12:19:04;;;;;;;;;;;819.80;1996.80;;;;;;5088653;28;19904;-73
2021/07/27 12:21:30;;;;;;;;;;;819.80;1971.20;;;;;;5091368;28;19908;-74
2021/07/27 12:23:55;;;;;;;;;;;820.10;1894.40;;;;;;5091147;28;20354;-73
2021/07/27 12:26:21;;;;;;;;;;;820.10;1945.60;;;;;;5091019;28;19904;-72
2021/07/27 12:28:46;;;;;;;;;;;819.90;1971.20;;;;;;5092028;28;19904;-72
2021/07/27 12:31:12;;;;;;;;;;;819.60;1996.80;;;;;;5090353;28;19962;-72
2021/07/27 12:33:39;;;;;;;;;;;819.40;1996.80;;;;;;5089720;28;19908;-73
2021/07/27 12:36:04;;;;;;;;;;;819.30;1996.80;;;;;;5087789;28;19913;-71
2021/07/27 12:38:32;;;;;;;;;;;819.30;1996.80;;;;;;5089405;28;19995;-72
2021/07/27 12:40:57;;;;;;;;;;;819.30;2022.40;;;;;;5088397;28;19933;-72
2021/07/27 12:43:24;;;;;;;;;;;794.50;2022.40;;;;;;5088632;28;19908;-73
2021/07/27 12:45:50;;;;;;;;;;;819.20;1996.80;;;;;;5090689;28;19947;-73
2021/07/27 12:48:16;;;;;;;;;;;819.30;2022.40;;;;;;5090819;28;19935;-73
2021/07/27 12:50:41;;;;;;;;;;;794.50;1996.80;;;;;;5089934;28;19908;-72
2021/07/27 12:53:07;;;;;;;;;;;794.50;2048.00;;;;;;5089431;28;20335;-73
2021/07/27 12:55:32;;;;;;;;;;;794.50;2022.40;;;;;;5090739;28;19946;-72
2021/07/27 12:57:59;;;;;;;;;;;794.30;2048.00;;;;;;5090477;28;19954;-72
2021/07/27 13:00:25;;;;;;;;;;;794.20;2048.00;;;;;;5059307;28;19912;-77
2021/07/27 13:02:51;;;;;;;;;;;794.20;2048.00;;;;;;5092537;28;19904;-77
2021/07/27 13:05:16;;;;;;;;;;;794.40;1945.60;;;;;;5092157;28;19912;-78
2021/07/27 13:07:42;;;;;;;;;;;794.50;2048.00;;;;;;5090703;28;19927;-72
2021/07/27 13:10:08;;;;;;;;;;;794.30;2048.00;;;;;;5093263;28;19923;-72
2021/07/27 13:12:33;;;;;;;;;;;794.20;2022.40;;;;;;5085987;28;20412;-72
2021/07/27 13:14:59;;;;;;;;;;;794.20;2048.00;;;;;;5090788;28;19908;-73
2021/07/27 13:17:25;;;;;;;;;;;794.10;2048.00;;;;;;5088860;28;19912;-77
2021/07/27 13:19:51;;;;;;;;;;;794.10;2048.00;;;;;;5071993;28;19996;-77
2021/07/27 13:22:17;;;;;;;;;;;794.00;2073.60;;;;;;5089743;28;20365;-75
2021/07/27 13:24:43;;;;;;;;;;;794.10;2048.00;;;;;;5087041;28;19995;-78
2021/07/27 13:27:08;;;;;;;;;;;794.00;2073.60;;;;;;5092857;28;19912;-73
2021/07/27 13:29:37;;;;;;;;;;;794.00;2073.60;;;;;;5089396;28;19916;-74
2021/07/27 13:32:04;;;;;;;;;;;794.00;2073.60;;;;;;5092649;28;19912;-76
2021/07/27 13:34:29;;;;;;;;;;;794.00;2073.60;;;;;;5090403;28;19904;-72
2021/07/27 13:36:55;;;;;;;;;;;794.00;2073.60;;;;;;5093597;28;19956;-72
2021/07/27 13:39:20;;;;;;;;;;;794.00;2073.60;;;;;;5092678;28;19904;-72
2021/07/27 13:41:46;;;;;;;;;;;794.00;2073.60;;;;;;5071386;28;19912;-74
2021/07/27 13:44:12;;;;;;;;;;;794.00;2073.60;;;;;;5073286;28;19911;-74
2021/07/27 13:46:37;;;;;;;;;;;794.00;2073.60;;;;;;5075520;28;19908;-73
2021/07/27 13:49:03;;;;;;;;;;;794.00;2073.60;;;;;;5075499;28;19951;-73
2021/07/27 13:51:28;;;;;;;;;;;793.90;2073.60;;;;;;5075443;28;20011;-71
2021/07/27 13:53:57;;;;;;;;;;;793.90;2073.60;;;;;;5075577;28;19905;-77
2021/07/27 13:56:22;;;;;;;;;;;793.80;2073.60;;;;;;5075688;28;19905;-77
2021/07/27 13:58:48;;;;;;;;;;;793.80;2073.60;;;;;;5075511;28;20386;-74
2021/07/27 14:01:13;;;;;;;;;;;793.90;2073.60;;;;;;5075156;28;20006;-73
2021/07/27 14:03:40;;;;;;;;;;;793.90;2073.60;;;;;;5090882;28;19903;-73